Time;durP1;ratioP1;P1;durP2;ratioP2;P2;SDS_P1;SDS_P2;PMS_P1;PMS_P2;Temp;Humidity;BMP_temperature;BMP_pressure;BME280_temperature;BME280_humidity;BME280_pressure;Samples;Min_cycle;Max_cycle;Signal;HPM_P1;HPM_P2
2023/12/14 00:00:41;;;;;;;1.20;1.10;;;10.60;99.90;;;;;;5010885;28;20623;-56
2023/12/14 00:03:08;;;;;;;1.37;1.20;;;10.50;99.90;;;;;;5011046;28;20211;-56
2023/12/14 00:05:35;;;;;;;2.10;1.03;;;10.50;99.90;;;;;;5010642;28;20234;-56
2023/12/14 00:08:03;;;;;;;1.47;0.97;;;10.40;99.90;;;;;;5008792;28;20239;-57
2023/12/14 00:10:29;;;;;;;1.10;1.00;;;10.40;99.90;;;;;;5012600;28;20227;-56
2023/12/14 00:12:56;;;;;;;3.33;1.00;;;10.30;99.90;;;;;;5014977;28;20230;-57
2023/12/14 00:15:23;;;;;;;2.07;1.17;;;10.30;99.90;;;;;;5014797;28;20617;-56
2023/12/14 00:17:50;;;;;;;1.00;0.90;;;10.40;99.90;;;;;;5014877;28;20227;-56
2023/12/14 00:20:17;;;;;;;1.83;1.03;;;10.50;99.90;;;;;;4999344;28;20279;-57
2023/12/14 00:22:43;;;;;;;1.60;1.13;;;10.50;99.90;;;;;;5014388;28;20207;-57
2023/12/14 00:25:11;;;;;;;1.57;1.00;;;10.60;99.90;;;;;;5014758;28;20301;-56
2023/12/14 00:27:38;;;;;;;2.90;1.17;;;10.60;99.90;;;;;;5014719;28;20210;-57
2023/12/14 00:30:06;;;;;;;2.27;1.00;;;10.60;99.90;;;;;;5008732;28;20211;-57
2023/12/14 00:32:33;;;;;;;1.47;0.90;;;10.70;99.90;;;;;;5012280;28;20730;-57
2023/12/14 00:34:59;;;;;;;4.27;1.13;;;10.60;99.90;;;;;;5014386;28;20211;-57
2023/12/14 00:37:26;;;;;;;1.37;1.10;;;10.70;99.90;;;;;;5014149;28;20227;-57
2023/12/14 00:39:54;;;;;;;2.83;1.37;;;10.70;99.90;;;;;;5014430;28;20203;-57
2023/12/14 00:42:22;;;;;;;2.43;1.40;;;10.80;99.90;;;;;;5014402;28;20214;-57
2023/12/14 00:44:49;;;;;;;4.07;1.30;;;10.80;99.90;;;;;;5006539;28;20214;-58
2023/12/14 00:47:16;;;;;;;1.53;1.10;;;10.80;99.90;;;;;;5014362;28;20227;-56
2023/12/14 00:49:42;;;;;;;2.67;1.30;;;10.80;99.90;;;;;;5013803;28;20310;-56
2023/12/14 00:52:09;;;;;;;1.57;1.40;;;10.80;99.90;;;;;;5007931;28;20219;-58
2023/12/14 00:54:36;;;;;;;1.80;1.27;;;10.80;99.90;;;;;;5012567;28;20215;-56
2023/12/14 00:57:03;;;;;;;2.13;1.37;;;10.80;99.90;;;;;;5014338;28;20253;-56
2023/12/14 00:59:31;;;;;;;1.90;1.20;;;10.80;99.90;;;;;;5013873;28;20217;-56
2023/12/14 01:01:58;;;;;;;2.10;1.27;;;10.80;99.90;;;;;;5005562;28;20206;-56
2023/12/14 01:04:24;;;;;;;2.93;1.57;;;10.80;99.90;;;;;;5014161;28;20215;-57
2023/12/14 01:06:51;;;;;;;2.97;1.80;;;10.80;99.90;;;;;;5005829;28;20280;-57
2023/12/14 01:09:18;;;;;;;2.20;1.57;;;10.80;99.90;;;;;;5013649;28;20203;-57
2023/12/14 01:11:44;;;;;;;3.13;1.67;;;10.80;99.90;;;;;;5005586;28;20211;-56
2023/12/14 01:14:11;;;;;;;3.20;1.70;;;10.80;99.90;;;;;;5014012;28;20215;-57
2023/12/14 01:16:39;;;;;;;2.00;1.47;;;10.80;99.90;;;;;;5013772;28;20234;-57
2023/12/14 01:19:06;;;;;;;1.90;1.60;;;10.80;99.90;;;;;;5012900;28;20598;-57
2023/12/14 01:21:33;;;;;;;2.77;1.70;;;10.80;99.90;;;;;;5014063;28;20306;-56
2023/12/14 01:24:00;;;;;;;2.37;1.70;;;10.80;99.90;;;;;;5013674;28;20211;-57
2023/12/14 01:26:27;;;;;;;4.03;1.70;;;10.80;99.90;;;;;;5013564;28;20306;-56
2023/12/14 01:28:54;;;;;;;2.03;1.60;;;10.80;99.90;;;;;;5013302;28;20611;-57
2023/12/14 01:31:23;;;;;;;3.30;1.70;;;10.80;99.90;;;;;;5005304;28;20210;-57
2023/12/14 01:33:51;;;;;;;1.80;1.50;;;10.70;99.90;;;;;;5013356;28;20257;-57
2023/12/14 01:36:21;;;;;;;2.50;1.30;;;10.70;99.90;;;;;;5013418;28;20290;-56
2023/12/14 01:38:48;;;;;;;2.20;1.30;;;10.70;99.90;;;;;;5009690;28;20295;-57
2023/12/14 01:41:15;;;;;;;1.07;0.97;;;10.70;99.90;;;;;;5008686;28;20203;-57
2023/12/14 01:43:41;;;;;;;1.83;1.37;;;10.70;99.90;;;;;;5013055;28;20231;-56
2023/12/14 01:46:09;;;;;;;2.13;1.40;;;10.70;99.90;;;;;;5013234;28;20647;-57
2023/12/14 01:48:35;;;;;;;2.37;1.17;;;10.70;99.90;;;;;;5013130;28;20215;-57
2023/12/14 01:51:04;;;;;;;2.90;1.70;;;10.60;99.90;;;;;;5005277;28;20211;-56
2023/12/14 01:53:30;;;;;;;2.33;1.37;;;10.50;99.90;;;;;;5012884;28;20214;-57
2023/12/14 01:55:57;;;;;;;2.47;1.20;;;10.50;99.90;;;;;;5013068;28;20231;-56
2023/12/14 01:58:25;;;;;;;1.77;1.30;;;10.50;99.90;;;;;;5004805;28;20254;-57
2023/12/14 02:01:04;;;;;;;1.47;1.33;;;10.50;99.90;;;;;;5005397;28;20668;-56
2023/12/14 02:03:30;;;;;;;1.67;1.20;;;10.50;99.90;;;;;;5012984;28;20218;-57
2023/12/14 02:05:58;;;;;;;1.57;1.20;;;10.50;99.90;;;;;;5013078;28;20231;-56
2023/12/14 02:08:26;;;;;;;2.23;1.47;;;10.50;99.90;;;;;;5012939;28;20288;-57
2023/12/14 02:10:53;;;;;;;2.73;0.90;;;10.50;99.90;;;;;;5004969;28;20211;-57
2023/12/14 02:13:19;;;;;;;3.07;1.20;;;10.40;99.90;;;;;;5012907;28;20211;-57
2023/12/14 02:15:47;;;;;;;2.60;1.20;;;10.50;99.90;;;;;;5012425;28;20227;-57
2023/12/14 02:18:13;;;;;;;1.53;1.13;;;10.40;99.90;;;;;;5012629;28;20273;-57
2023/12/14 02:20:40;;;;;;;1.37;1.03;;;10.40;99.90;;;;;;5012464;28;20211;-57
2023/12/14 02:23:08;;;;;;;2.97;0.93;;;10.40;99.90;;;;;;5012650;28;20296;-57
2023/12/14 02:25:34;;;;;;;1.20;1.00;;;10.40;99.90;;;;;;5011112;28;20608;-57
2023/12/14 02:28:01;;;;;;;2.60;1.20;;;10.40;99.90;;;;;;5006111;28;20536;-57
2023/12/14 02:30:28;;;;;;;2.00;0.70;;;10.30;99.90;;;;;;5011005;28;20585;-57
2023/12/14 02:32:54;;;;;;;1.43;0.83;;;10.20;99.90;;;;;;5012151;28;20218;-57
2023/12/14 02:35:22;;;;;;;1.30;1.00;;;10.20;99.90;;;;;;5012248;28;20214;-57
2023/12/14 02:37:49;;;;;;;1.00;0.80;;;10.20;99.90;;;;;;5011812;28;20218;-57
2023/12/14 02:40:17;;;;;;;1.10;0.90;;;10.00;99.90;;;;;;5012427;28;20349;-56
2023/12/14 02:42:44;;;;;;;0.80;0.70;;;10.00;99.90;;;;;;5012101;28;20222;-57
2023/12/14 02:45:11;;;;;;;1.40;0.90;;;9.90;99.90;;;;;;5012322;28;20207;-57
2023/12/14 02:47:38;;;;;;;1.60;1.10;;;9.90;99.90;;;;;;5012352;28;20210;-56
2023/12/14 02:50:05;;;;;;;1.33;0.97;;;10.00;99.90;;;;;;5006814;28;20215;-57
2023/12/14 02:52:32;;;;;;;1.00;0.90;;;10.10;99.90;;;;;;5008932;28;20633;-57
2023/12/14 02:54:59;;;;;;;1.43;1.07;;;10.20;99.90;;;;;;5012337;28;20265;-56
2023/12/14 02:57:27;;;;;;;3.80;1.30;;;10.30;99.90;;;;;;5011767;28;20577;-57
2023/12/14 02:59:53;;;;;;;6.77;4.57;;;10.40;99.90;;;;;;5003821;28;20207;-57
2023/12/14 03:02:20;;;;;;;2.57;1.43;;;10.40;99.90;;;;;;5011695;28;20203;-56
2023/12/14 03:04:47;;;;;;;2.17;1.33;;;10.30;99.90;;;;;;5011593;28;20273;-57
2023/12/14 03:07:14;;;;;;;2.03;1.00;;;10.40;99.90;;;;;;5011478;28;20238;-57
2023/12/14 03:09:44;;;;;;;2.27;1.20;;;10.40;99.90;;;;;;4995063;28;20234;-55
2023/12/14 03:12:10;;;;;;;2.63;1.10;;;10.40;99.90;;;;;;5011959;28;20345;-56
2023/12/14 03:14:40;;;;;;;2.10;1.17;;;10.40;99.90;;;;;;5011907;28;20214;-56
2023/12/14 03:17:12;;;;;;;2.03;1.20;;;10.50;99.90;;;;;;5011491;28;20234;-56
2023/12/14 03:19:39;;;;;;;3.07;1.20;;;10.50;99.90;;;;;;5010911;28;20673;-55
2023/12/14 03:22:06;;;;;;;1.20;0.93;;;10.50;99.90;;;;;;5011354;28;20699;-56
2023/12/14 03:24:33;;;;;;;2.43;1.33;;;10.60;99.90;;;;;;5011195;28;20632;-56
2023/12/14 03:27:00;;;;;;;2.07;1.30;;;10.60;99.90;;;;;;5011581;28;20318;-57
2023/12/14 03:29:27;;;;;;;2.37;1.37;;;10.50;99.90;;;;;;5011288;28;20210;-57
2023/12/14 03:31:55;;;;;;;2.83;1.30;;;10.60;99.90;;;;;;5003385;28;20203;-57
2023/12/14 03:34:22;;;;;;;1.40;1.30;;;10.60;99.90;;;;;;5011294;28;20288;-57
2023/12/14 03:36:49;;;;;;;1.10;1.00;;;10.60;99.90;;;;;;5008041;28;20709;-55
2023/12/14 03:39:16;;;;;;;2.80;1.30;;;10.60;99.90;;;;;;5006196;28;20234;-56
2023/12/14 03:41:43;;;;;;;3.47;1.40;;;10.50;99.90;;;;;;5010749;28;20308;-56
2023/12/14 03:44:09;;;;;;;2.53;1.53;;;10.40;99.90;;;;;;5011171;28;20218;-55
2023/12/14 03:46:36;;;;;;;3.80;1.50;;;10.40;99.90;;;;;;5002744;28;20250;-56
2023/12/14 03:49:04;;;;;;;2.50;1.20;;;10.40;99.90;;;;;;5010880;28;20214;-57
2023/12/14 03:51:31;;;;;;;1.50;1.40;;;10.50;99.90;;;;;;5011150;28;20213;-58
2023/12/14 03:53:59;;;;;;;4.60;1.30;;;10.50;99.90;;;;;;5006928;28;20215;-56
2023/12/14 03:56:25;;;;;;;3.83;1.30;;;10.60;99.90;;;;;;5007271;28;20305;-56
2023/12/14 03:58:52;;;;;;;1.73;1.23;;;10.60;99.90;;;;;;5010528;28;20750;-57
2023/12/14 04:01:20;;;;;;;2.30;1.30;;;10.60;99.90;;;;;;5010820;28;20723;-57
2023/12/14 04:03:47;;;;;;;1.73;1.20;;;10.70;99.90;;;;;;5010884;28;20211;-57
2023/12/14 04:06:15;;;;;;;2.30;1.10;;;10.70;99.90;;;;;;5042278;22;20230;-61
2023/12/14 04:08:42;;;;;;;1.70;1.17;;;10.70;99.90;;;;;;5028879;28;20566;-62
2023/12/14 04:11:09;;;;;;;5.70;4.70;;;10.70;99.90;;;;;;5024956;28;20222;-61
2023/12/14 04:13:36;;;;;;;17.90;13.97;;;10.70;99.90;;;;;;5030516;28;20209;-61
2023/12/14 04:16:03;;;;;;;2.90;2.03;;;10.70;99.90;;;;;;5030845;28;20232;-62
2023/12/14 04:18:30;;;;;;;3.20;1.47;;;10.70;99.90;;;;;;5030646;28;20226;-61
2023/12/14 04:20:57;;;;;;;1.77;1.10;;;10.60;99.90;;;;;;5030738;28;20687;-62
2023/12/14 04:23:26;;;;;;;2.03;1.43;;;10.60;99.90;;;;;;5030672;28;20259;-62
2023/12/14 04:25:53;;;;;;;1.97;1.30;;;10.50;99.90;;;;;;5030682;28;20599;-62
2023/12/14 04:28:20;;;;;;;1.63;1.50;;;10.50;99.90;;;;;;5030576;28;20210;-61
2023/12/14 04:30:46;;;;;;;2.33;1.63;;;10.60;99.90;;;;;;5030744;28;20218;-62
2023/12/14 04:33:13;;;;;;;2.20;1.50;;;10.60;99.90;;;;;;5030760;28;20626;-62
2023/12/14 04:35:40;;;;;;;2.90;1.60;;;10.60;99.90;;;;;;5030691;28;20222;-62
2023/12/14 04:38:06;;;;;;;3.13;2.10;;;10.60;99.90;;;;;;5030531;28;20222;-61
2023/12/14 04:40:34;;;;;;;2.67;1.70;;;10.60;99.90;;;;;;5030179;28;20215;-62
2023/12/14 04:43:01;;;;;;;2.10;1.43;;;10.60;99.90;;;;;;5030403;28;20218;-61
2023/12/14 04:45:28;;;;;;;3.83;1.67;;;10.60;99.90;;;;;;5030629;28;20229;-62
2023/12/14 04:47:54;;;;;;;3.40;1.90;;;10.60;99.90;;;;;;5030568;28;20207;-62
2023/12/14 04:50:21;;;;;;;2.53;1.70;;;10.60;99.90;;;;;;5030400;28;20214;-62
2023/12/14 04:52:48;;;;;;;2.10;1.60;;;10.50;99.90;;;;;;5030293;28;20264;-62
2023/12/14 04:55:15;;;;;;;2.27;1.70;;;10.10;99.90;;;;;;5033823;28;20210;-62
2023/12/14 04:57:43;;;;;;;2.30;1.80;;;9.80;99.90;;;;;;5034259;28;20226;-62
2023/12/14 05:00:11;;;;;;;4.33;2.80;;;9.90;99.90;;;;;;5034061;28;20268;-62
2023/12/14 05:02:38;;;;;;;2.80;2.03;;;9.90;99.90;;;;;;5033935;28;20215;-62
2023/12/14 05:05:05;;;;;;;2.43;2.00;;;10.10;99.90;;;;;;5034116;28;20236;-62
2023/12/14 05:07:32;;;;;;;2.37;1.77;;;10.20;99.90;;;;;;5033729;28;20722;-62
2023/12/14 05:09:58;;;;;;;4.33;1.90;;;10.30;99.90;;;;;;5033593;28;20206;-62
2023/12/14 05:12:26;;;;;;;2.37;1.83;;;10.40;99.90;;;;;;5033610;28;20218;-62
2023/12/14 05:14:54;;;;;;;5.47;2.20;;;10.40;99.90;;;;;;5033740;28;20212;-62
2023/12/14 05:17:21;;;;;;;3.33;1.93;;;10.50;99.90;;;;;;5033541;28;20233;-62
2023/12/14 05:19:48;;;;;;;4.10;2.50;;;10.50;99.90;;;;;;5033521;28;20206;-62
2023/12/14 05:22:14;;;;;;;3.13;2.20;;;10.60;99.90;;;;;;5033467;28;20206;-62
2023/12/14 05:24:41;;;;;;;2.97;2.20;;;10.60;99.90;;;;;;5033548;28;20272;-62
2023/12/14 05:27:08;;;;;;;3.47;2.40;;;10.60;99.90;;;;;;5033724;28;20238;-62
2023/12/14 05:29:34;;;;;;;4.70;2.57;;;10.60;99.90;;;;;;5033353;28;20225;-62
2023/12/14 05:32:02;;;;;;;5.13;2.43;;;10.70;99.90;;;;;;5033263;28;20213;-62
2023/12/14 05:34:29;;;;;;;7.47;3.90;;;10.70;99.90;;;;;;5033497;28;20214;-62
2023/12/14 05:36:56;;;;;;;3.70;2.40;;;10.70;99.90;;;;;;5033144;28;20241;-62
2023/12/14 05:39:23;;;;;;;3.23;2.10;;;10.70;99.90;;;;;;5033307;28;20260;-62
2023/12/14 05:41:50;;;;;;;3.77;2.20;;;10.70;99.90;;;;;;5033076;28;20218;-62
2023/12/14 05:44:16;;;;;;;3.13;2.33;;;10.70;99.90;;;;;;5033407;28;20289;-62
2023/12/14 05:46:43;;;;;;;5.43;2.83;;;10.60;99.90;;;;;;5033332;28;20226;-62
2023/12/14 05:49:11;;;;;;;4.57;2.40;;;10.60;99.90;;;;;;5033279;28;20574;-61
2023/12/14 05:51:39;;;;;;;3.10;2.40;;;10.50;99.90;;;;;;5032749;28;20214;-62
2023/12/14 05:54:06;;;;;;;4.20;2.30;;;10.50;99.90;;;;;;5033057;28;20206;-62
2023/12/14 05:56:33;;;;;;;3.20;2.50;;;10.40;99.90;;;;;;5032855;28;20303;-62
2023/12/14 05:59:00;;;;;;;3.60;2.27;;;10.40;99.90;;;;;;5032793;28;20238;-62
2023/12/14 06:01:26;;;;;;;10.03;6.70;;;10.50;99.90;;;;;;5033002;28;20268;-62
2023/12/14 06:03:53;;;;;;;3.13;2.60;;;10.50;99.90;;;;;;5033277;28;20210;-62
2023/12/14 06:06:21;;;;;;;4.53;2.57;;;10.50;99.90;;;;;;5032419;28;20242;-62
2023/12/14 06:08:48;;;;;;;3.77;2.33;;;10.50;99.90;;;;;;5032302;28;20221;-62
2023/12/14 06:11:15;;;;;;;6.60;4.70;;;10.50;99.90;;;;;;5032951;28;20306;-62
2023/12/14 06:13:41;;;;;;;7.23;5.23;;;10.50;99.90;;;;;;5032665;28;20218;-63
2023/12/14 06:16:12;;;;;;;3.40;2.93;;;10.50;99.90;;;;;;5032696;28;20226;-62
2023/12/14 06:18:41;;;;;;;7.90;3.67;;;10.50;99.90;;;;;;5032052;28;20316;-62
2023/12/14 06:21:08;;;;;;;8.97;3.57;;;10.50;99.90;;;;;;5032593;28;20208;-62
2023/12/14 06:23:36;;;;;;;5.00;3.27;;;10.60;99.90;;;;;;5032334;28;20214;-62
2023/12/14 06:26:04;;;;;;;4.27;3.63;;;10.60;99.90;;;;;;5032614;28;20222;-62
2023/12/14 06:28:31;;;;;;;5.37;4.60;;;10.60;99.90;;;;;;5032137;28;20210;-62
2023/12/14 06:30:58;;;;;;;5.00;3.40;;;10.70;99.90;;;;;;5032383;28;20206;-62
2023/12/14 06:33:24;;;;;;;7.20;4.70;;;10.70;99.90;;;;;;5032253;28;20210;-62
2023/12/14 06:35:51;;;;;;;5.53;3.60;;;10.70;99.90;;;;;;5032372;28;20237;-62
2023/12/14 06:38:18;;;;;;;9.37;5.73;;;10.70;99.90;;;;;;5032177;28;20627;-62
2023/12/14 06:40:46;;;;;;;6.07;3.87;;;10.70;99.90;;;;;;5031960;28;20233;-62
2023/12/14 06:43:12;;;;;;;4.93;4.00;;;10.70;99.90;;;;;;5031936;28;20562;-62
2023/12/14 06:45:39;;;;;;;7.80;5.93;;;10.70;99.90;;;;;;5031715;28;20609;-62
2023/12/14 06:48:06;;;;;;;8.70;4.00;;;10.70;99.90;;;;;;5032189;28;20296;-62
2023/12/14 06:50:33;;;;;;;4.50;3.57;;;10.80;99.90;;;;;;5031839;28;20222;-62
2023/12/14 06:52:59;;;;;;;7.43;3.33;;;10.80;99.90;;;;;;5023590;28;20233;-62
2023/12/14 06:55:26;;;;;;;4.10;3.20;;;10.70;99.90;;;;;;5031767;28;20217;-62
2023/12/14 06:57:54;;;;;;;9.97;3.80;;;10.70;99.90;;;;;;5031484;28;20691;-62
2023/12/14 07:00:21;;;;;;;6.40;3.37;;;10.70;99.90;;;;;;5031435;28;20214;-62
2023/12/14 07:02:48;;;;;;;5.93;3.33;;;10.60;99.90;;;;;;5031586;28;20268;-62
2023/12/14 07:05:15;;;;;;;3.97;3.30;;;10.60;99.90;;;;;;5031826;28;20569;-62
2023/12/14 07:07:42;;;;;;;5.23;3.17;;;10.60;99.90;;;;;;5031294;28;20249;-63
2023/12/14 07:10:09;;;;;;;4.30;3.60;;;10.50;99.90;;;;;;5031617;28;20859;-61
2023/12/14 07:12:36;;;;;;;6.43;3.23;;;10.50;99.90;;;;;;5031277;28;20273;-62
2023/12/14 07:15:05;;;;;;;5.57;4.23;;;10.50;99.90;;;;;;5031203;28;20206;-64
2023/12/14 07:17:31;;;;;;;5.20;3.87;;;10.60;99.90;;;;;;5030967;28;20234;-61
2023/12/14 07:19:58;;;;;;;6.20;4.23;;;10.60;99.90;;;;;;5031067;28;20226;-62
2023/12/14 07:22:25;;;;;;;5.50;3.47;;;10.60;99.90;;;;;;5031312;28;20278;-59
2023/12/14 07:24:51;;;;;;;5.77;4.00;;;10.70;99.90;;;;;;5031161;28;20563;-59
2023/12/14 07:27:18;;;;;;;5.00;3.90;;;10.70;99.90;;;;;;5031086;28;20652;-59
2023/12/14 07:29:45;;;;;;;4.33;3.70;;;10.70;99.90;;;;;;5030900;28;20588;-59
2023/12/14 07:32:13;;;;;;;6.70;3.93;;;10.80;99.90;;;;;;5031103;28;20268;-59
2023/12/14 07:34:39;;;;;;;5.97;3.97;;;10.80;99.90;;;;;;5031163;28;20578;-59
2023/12/14 07:37:06;;;;;;;5.90;3.90;;;10.80;99.90;;;;;;5031192;28;20256;-59
2023/12/14 07:39:33;;;;;;;6.70;3.80;;;10.80;99.90;;;;;;5030988;28;20260;-59
2023/12/14 07:42:00;;;;;;;6.57;3.80;;;10.80;99.90;;;;;;5030795;28;20225;-59
2023/12/14 07:44:29;;;;;;;6.23;4.10;;;10.90;99.90;;;;;;5031161;28;20215;-60
2023/12/14 07:46:56;;;;;;;4.83;4.13;;;10.90;99.90;;;;;;5030887;28;20317;-59
2023/12/14 07:49:24;;;;;;;6.43;4.23;;;11.00;99.90;;;;;;5030760;28;20214;-59
2023/12/14 07:51:51;;;;;;;6.43;4.17;;;11.10;99.90;;;;;;5030810;28;20242;-60
2023/12/14 07:54:18;;;;;;;4.70;4.20;;;11.10;99.90;;;;;;5030949;28;20210;-60
2023/12/14 07:56:45;;;;;;;3.80;3.47;;;11.20;99.90;;;;;;5030910;28;20234;-59
2023/12/14 07:59:12;;;;;;;6.27;4.23;;;11.20;99.90;;;;;;5030682;28;20258;-59
2023/12/14 08:01:38;;;;;;;5.40;4.37;;;11.30;99.90;;;;;;5030651;28;20612;-60
2023/12/14 08:04:05;;;;;;;4.53;4.07;;;11.30;99.90;;;;;;5031077;28;20659;-59
2023/12/14 08:06:33;;;;;;;6.40;4.23;;;11.40;99.90;;;;;;5030502;28;20242;-60
2023/12/14 08:09:00;;;;;;;5.23;4.70;;;11.40;99.90;;;;;;5030283;28;20221;-59
2023/12/14 08:11:26;;;;;;;8.30;5.93;;;11.50;99.90;;;;;;5030778;28;20214;-59
2023/12/14 08:13:53;;;;;;;6.10;4.80;;;11.50;99.90;;;;;;5030897;28;20218;-60
2023/12/14 08:16:20;;;;;;;6.30;4.80;;;11.50;99.90;;;;;;5030627;28;20756;-60
2023/12/14 08:18:48;;;;;;;6.10;4.80;;;11.60;99.90;;;;;;5030261;28;20599;-60
2023/12/14 08:21:15;;;;;;;7.17;5.80;;;11.60;99.90;;;;;;5030627;28;20214;-60
2023/12/14 08:23:43;;;;;;;6.67;5.07;;;11.60;99.90;;;;;;5030256;28;20214;-61
2023/12/14 08:26:12;;;;;;;6.30;5.30;;;11.60;99.90;;;;;;5030529;28;20226;-60
2023/12/14 08:28:39;;;;;;;6.10;4.93;;;11.70;99.90;;;;;;5033079;28;20454;-60
2023/12/14 08:31:06;;;;;;;6.37;5.43;;;11.80;99.90;;;;;;5034630;28;20213;-60
2023/12/14 08:33:33;;;;;;;7.00;5.67;;;11.90;99.90;;;;;;5034482;28;20214;-60
2023/12/14 08:35:59;;;;;;;6.27;5.53;;;12.00;99.90;;;;;;5034113;28;20226;-61
2023/12/14 08:38:26;;;;;;;9.27;6.00;;;12.00;99.90;;;;;;5033746;28;20306;-60
2023/12/14 08:40:54;;;;;;;8.17;5.33;;;12.10;99.90;;;;;;5034127;28;20221;-62
2023/12/14 08:43:21;;;;;;;6.07;5.47;;;12.10;99.90;;;;;;5034197;28;20260;-60
2023/12/14 08:45:48;;;;;;;6.20;5.23;;;12.10;99.90;;;;;;5034117;28;20234;-61
2023/12/14 08:48:15;;;;;;;11.57;5.40;;;12.10;99.90;;;;;;5034132;28;20206;-61
2023/12/14 08:50:41;;;;;;;7.10;5.60;;;12.10;99.90;;;;;;5033618;28;20206;-60
2023/12/14 08:53:08;;;;;;;7.20;6.30;;;12.20;99.90;;;;;;5034171;28;20668;-61
2023/12/14 08:55:35;;;;;;;10.00;6.27;;;12.20;99.90;;;;;;5042272;28;20209;-60
2023/12/14 08:58:03;;;;;;;10.97;6.60;;;12.30;99.90;;;;;;5034008;28;20211;-61
2023/12/14 09:00:30;;;;;;;8.63;6.80;;;12.30;99.90;;;;;;5034016;28;20620;-60
2023/12/14 09:02:57;;;;;;;6.87;5.90;;;12.40;99.90;;;;;;5033589;28;20221;-60
2023/12/14 09:05:26;;;;;;;7.70;6.70;;;12.40;99.90;;;;;;5033759;28;20221;-60
2023/12/14 09:07:55;;;;;;;6.97;6.27;;;12.50;99.90;;;;;;5033568;28;20284;-60
2023/12/14 09:10:22;;;;;;;8.10;6.80;;;12.50;99.90;;;;;;5033872;28;20233;-60
2023/12/14 09:12:49;;;;;;;10.60;7.13;;;12.50;99.90;;;;;;5033690;28;20214;-60
2023/12/14 09:15:17;;;;;;;8.17;7.37;;;12.50;99.90;;;;;;5033677;28;20209;-61
2023/12/14 09:17:44;;;;;;;10.03;8.17;;;12.50;99.90;;;;;;5033417;28;20226;-60
2023/12/14 09:20:12;;;;;;;10.00;7.07;;;12.50;99.90;;;;;;5033634;28;20237;-61
2023/12/14 09:22:38;;;;;;;9.83;7.70;;;12.50;99.90;;;;;;5033286;28;20578;-60
2023/12/14 09:25:07;;;;;;;8.95;7.88;;;12.50;99.90;;;;;;5033539;28;20405;-64
2023/12/14 09:27:34;;;;;;;9.00;7.17;;;12.70;99.90;;;;;;5033533;28;20318;-60
2023/12/14 09:30:00;;;;;;;8.80;7.40;;;12.80;99.90;;;;;;5033299;28;20206;-60
2023/12/14 09:32:28;;;;;;;8.63;7.40;;;12.90;99.90;;;;;;5033265;28;20213;-58
2023/12/14 09:34:56;;;;;;;8.10;7.30;;;12.90;99.90;;;;;;5033353;28;20650;-59
2023/12/14 09:37:23;;;;;;;8.60;7.70;;;13.00;99.90;;;;;;5033364;28;20325;-59
2023/12/14 09:39:49;;;;;;;9.53;8.30;;;12.90;99.90;;;;;;5032311;28;20234;-59
2023/12/14 09:42:20;;;;;;;8.67;7.73;;;12.90;99.90;;;;;;5033199;28;20214;-59
2023/12/14 09:44:48;;;;;;;9.60;8.60;;;12.90;99.90;;;;;;5033111;28;20305;-59
2023/12/14 09:47:15;;;;;;;8.97;7.47;;;13.00;99.90;;;;;;5032992;28;20303;-59
2023/12/14 09:49:44;;;;;;;9.80;7.60;;;13.20;99.90;;;;;;5032900;28;20211;-59
2023/12/14 09:52:11;;;;;;;9.80;8.07;;;13.40;99.90;;;;;;5033023;28;20202;-59
2023/12/14 09:54:38;;;;;;;10.33;7.17;;;13.50;99.90;;;;;;5033049;28;20213;-59
2023/12/14 09:57:05;;;;;;;10.37;7.57;;;13.50;99.90;;;;;;5024592;28;20703;-59
2023/12/14 09:59:31;;;;;;;8.30;7.50;;;13.50;99.90;;;;;;5032391;28;20226;-61
2023/12/14 10:02:10;;;;;;;10.07;7.40;;;13.40;99.90;;;;;;5032702;28;20210;-59
2023/12/14 10:04:38;;;;;;;9.43;8.00;;;13.30;99.90;;;;;;5032894;28;20246;-59
2023/12/14 10:07:07;;;;;;;9.23;7.60;;;13.10;99.90;;;;;;5032977;28;20226;-60
2023/12/14 10:09:34;;;;;;;10.33;7.53;;;13.10;99.90;;;;;;5032512;28;20210;-59
2023/12/14 10:12:05;;;;;;;8.73;7.47;;;13.00;99.90;;;;;;5032500;28;20277;-58
2023/12/14 10:14:32;;;;;;;8.70;7.43;;;13.10;99.90;;;;;;5033040;28;20210;-59
2023/12/14 10:16:59;;;;;;;8.53;7.33;;;13.30;99.90;;;;;;5032568;28;20278;-60
2023/12/14 10:19:26;;;;;;;10.43;7.93;;;13.30;99.90;;;;;;5032206;28;20226;-60
2023/12/14 10:21:53;;;;;;;11.57;8.13;;;13.30;99.90;;;;;;5032209;28;20214;-60
2023/12/14 10:24:21;;;;;;;20.20;10.33;;;13.20;99.90;;;;;;5032596;28;20245;-60
2023/12/14 10:26:48;;;;;;;9.13;8.17;;;13.30;99.90;;;;;;5031887;28;20599;-60
2023/12/14 10:29:15;;;;;;;8.50;7.37;;;13.30;99.90;;;;;;5032352;28;20203;-59
2023/12/14 10:31:43;;;;;;;9.50;7.80;;;13.30;99.90;;;;;;5032447;28;20246;-59
2023/12/14 10:34:12;;;;;;;9.90;7.43;;;13.20;99.90;;;;;;5032146;28;20583;-60
2023/12/14 10:36:39;;;;;;;10.03;7.30;;;13.10;99.90;;;;;;5032318;28;20230;-60
2023/12/14 10:39:08;;;;;;;10.93;7.03;;;13.00;99.90;;;;;;5031596;28;20602;-59
2023/12/14 10:41:37;;;;;;;8.70;7.27;;;12.90;99.90;;;;;;5032269;28;20676;-60
2023/12/14 10:44:05;;;;;;;10.20;8.63;;;12.80;99.90;;;;;;5031964;28;20544;-61
2023/12/14 10:46:32;;;;;;;9.50;7.60;;;12.50;99.90;;;;;;5032127;28;20235;-60
2023/12/14 10:48:58;;;;;;;10.40;7.90;;;12.40;99.90;;;;;;5031868;28;20218;-59
2023/12/14 10:51:27;;;;;;;10.33;7.97;;;12.50;99.90;;;;;;5031169;28;20218;-59
2023/12/14 10:53:54;;;;;;;9.60;8.23;;;12.60;99.90;;;;;;5031549;28;20321;-60
2023/12/14 10:56:21;;;;;;;9.77;7.53;;;12.70;99.90;;;;;;5032028;28;20226;-60
2023/12/14 10:58:53;;;;;;;13.07;9.17;;;12.80;99.90;;;;;;5031661;28;20206;-60
2023/12/14 11:01:21;;;;;;;10.33;8.40;;;12.90;99.90;;;;;;5031466;28;20664;-60
2023/12/14 11:03:49;;;;;;;8.63;7.13;;;13.10;99.90;;;;;;5031586;28;20252;-61
2023/12/14 11:06:27;;;;;;;9.87;7.37;;;13.00;99.90;;;;;;5031278;28;20268;-61
2023/12/14 11:08:54;;;;;;;9.63;7.10;;;13.00;99.90;;;;;;5031777;28;20221;-61
2023/12/14 11:11:21;;;;;;;8.57;6.50;;;13.00;99.90;;;;;;5031776;28;20644;-61
2023/12/14 11:13:52;;;;;;;12.47;8.03;;;13.10;99.90;;;;;;5032078;28;20206;-60
2023/12/14 11:16:21;;;;;;;10.23;7.63;;;13.20;99.90;;;;;;5031546;28;20230;-60
2023/12/14 11:18:48;;;;;;;8.70;7.10;;;13.20;99.90;;;;;;5030775;28;20210;-61
2023/12/14 11:21:20;;;;;;;10.43;6.83;;;13.40;99.90;;;;;;5031476;28;20226;-61
2023/12/14 11:23:50;;;;;;;7.20;6.50;;;13.40;99.90;;;;;;5031476;28;20252;-61
2023/12/14 11:26:22;;;;;;;8.70;6.90;;;13.40;99.90;;;;;;5031817;28;20237;-60
2023/12/14 11:28:50;;;;;;;8.37;6.33;;;13.40;99.90;;;;;;5031041;28;20233;-60
2023/12/14 11:31:17;;;;;;;8.43;6.37;;;13.40;99.90;;;;;;5031225;28;20206;-60
2023/12/14 11:33:45;;;;;;;7.23;5.70;;;13.40;99.90;;;;;;5031088;28;20237;-59
2023/12/14 11:36:15;;;;;;;7.70;6.20;;;13.30;99.90;;;;;;5031349;28;20325;-60
2023/12/14 11:38:42;;;;;;;11.40;7.10;;;13.30;99.90;;;;;;5031015;28;20304;-60
2023/12/14 11:41:09;;;;;;;8.80;5.80;;;13.30;99.90;;;;;;5031331;28;20316;-60
2023/12/14 11:43:43;;;;;;;7.67;5.50;;;13.20;99.90;;;;;;5031407;28;20223;-59
2023/12/14 11:46:11;;;;;;;9.50;6.63;;;13.00;99.90;;;;;;5031577;28;20237;-60
2023/12/14 11:48:37;;;;;;;6.87;5.20;;;13.00;99.90;;;;;;5031405;28;20590;-59
2023/12/14 11:51:04;;;;;;;8.80;5.83;;;13.20;99.90;;;;;;5031072;28;20199;-61
2023/12/14 11:53:32;;;;;;;9.17;5.30;;;13.30;99.90;;;;;;5031611;28;20212;-60
2023/12/14 11:56:02;;;;;;;8.40;5.40;;;13.40;99.90;;;;;;5030901;28;20317;-58
2023/12/14 11:58:29;;;;;;;7.73;5.43;;;13.40;99.90;;;;;;5031039;28;20210;-58
2023/12/14 12:00:55;;;;;;;9.10;5.33;;;13.50;99.90;;;;;;5031245;28;20648;-60
2023/12/14 12:03:24;;;;;;;8.00;5.73;;;13.50;99.90;;;;;;5030798;28;20609;-59
2023/12/14 12:05:52;;;;;;;7.80;5.73;;;13.50;99.90;;;;;;5030674;28;20601;-59
2023/12/14 12:08:21;;;;;;;9.80;7.43;;;13.50;99.90;;;;;;5030919;28;20226;-60
2023/12/14 12:10:49;;;;;;;9.50;6.67;;;13.40;99.90;;;;;;5031214;28;20218;-59
2023/12/14 12:13:17;;;;;;;8.10;5.80;;;13.50;99.90;;;;;;5030934;28;20248;-59
2023/12/14 12:15:44;;;;;;;9.43;6.77;;;13.40;99.90;;;;;;5030693;28;20301;-59
2023/12/14 12:18:13;;;;;;;8.40;6.10;;;13.40;99.90;;;;;;5030845;28;20217;-58
2023/12/14 12:20:41;;;;;;;10.40;6.70;;;13.30;99.90;;;;;;5030791;28;20320;-59
2023/12/14 12:23:08;;;;;;;11.10;6.50;;;13.20;99.90;;;;;;5030174;28;20261;-59
2023/12/14 12:25:35;;;;;;;7.97;6.30;;;13.10;99.90;;;;;;5030184;28;20655;-59
2023/12/14 12:28:04;;;;;;;11.07;6.60;;;13.00;99.90;;;;;;5030707;28;20218;-60
2023/12/14 12:30:30;;;;;;;9.67;6.30;;;13.00;99.90;;;;;;5030368;28;20252;-60
2023/12/14 12:32:57;;;;;;;8.93;6.60;;;13.00;99.90;;;;;;5030198;28;20218;-60
2023/12/14 12:35:25;;;;;;;12.17;6.77;;;13.00;99.90;;;;;;5030375;28;20657;-60
2023/12/14 12:37:54;;;;;;;11.67;7.77;;;13.10;99.90;;;;;;5029955;28;20234;-61
2023/12/14 12:40:21;;;;;;;9.50;6.10;;;13.10;99.90;;;;;;5030625;28;20223;-59
2023/12/14 12:42:49;;;;;;;8.17;6.17;;;13.20;99.90;;;;;;5030354;28;20297;-59
2023/12/14 12:45:16;;;;;;;7.87;5.67;;;13.40;99.90;;;;;;5030481;28;20238;-60